Terminal Aerodrome Forecast
Issued by NWS

Home | Current Version | Previous Version | Text Only | Print | Product List | Glossary On
Versions: 1 2 3 4 5 6 7 8 9 10 11 12 13 14 15 16 17 18 19 20 21 22
000
FTUS43 KAPX 021120
TAFAPN
TAF
KAPN 021120Z 0212/0312 00000KT 3SM BR SKC
      TEMPO 0212/0213 3/4SM BR
     FM021300 VRB03KT P6SM SCT040
     FM021900 10007KT P6SM VCTS BKN040CB
     FM030100 VRB03KT P6SM BKN120
     FM030400 VRB03KT 5SM BR BKN120=

USA.gov is the U.S. government's official web portal to all federal, state and local government web resources and services.